sensor_id;sensor_type;location;lat;lon;timestamp;P1;durP1;ratioP1;P2;durP2;ratioP2
3068;SDS011;1545;51.728;8.796;2023-02-28T00:02:17;8.53;;;3.63;;
3068;SDS011;1545;51.728;8.796;2023-02-28T00:04:43;7.50;;;3.77;;
3068;SDS011;1545;51.728;8.796;2023-02-28T00:07:08;6.10;;;3.27;;
3068;SDS011;1545;51.728;8.796;2023-02-28T00:09:34;6.70;;;4.00;;
3068;SDS011;1545;51.728;8.796;2023-02-28T00:12:00;8.83;;;4.07;;
3068;SDS011;1545;51.728;8.796;2023-02-28T00:14:29;6.37;;;3.90;;
3068;SDS011;1545;51.728;8.796;2023-02-28T00:16:55;7.03;;;3.50;;
3068;SDS011;1545;51.728;8.796;2023-02-28T00:19:20;3.67;;;3.00;;
3068;SDS011;1545;51.728;8.796;2023-02-28T00:21:46;5.17;;;3.47;;
3068;SDS011;1545;51.728;8.796;2023-02-28T00:24:11;8.10;;;3.70;;
3068;SDS011;1545;51.728;8.796;2023-02-28T00:26:37;5.80;;;3.63;;
3068;SDS011;1545;51.728;8.796;2023-02-28T00:29:02;5.13;;;3.70;;
3068;SDS011;1545;51.728;8.796;2023-02-28T00:31:28;6.87;;;3.53;;
3068;SDS011;1545;51.728;8.796;2023-02-28T00:33:53;5.60;;;3.87;;
3068;SDS011;1545;51.728;8.796;2023-02-28T00:36:19;4.83;;;3.40;;
3068;SDS011;1545;51.728;8.796;2023-02-28T00:38:44;6.17;;;4.23;;
3068;SDS011;1545;51.728;8.796;2023-02-28T00:41:10;6.90;;;3.90;;
3068;SDS011;1545;51.728;8.796;2023-02-28T00:43:36;7.37;;;4.40;;
3068;SDS011;1545;51.728;8.796;2023-02-28T00:46:03;7.30;;;4.30;;
3068;SDS011;1545;51.728;8.796;2023-02-28T00:48:29;6.53;;;3.97;;
3068;SDS011;1545;51.728;8.796;2023-02-28T00:50:55;7.17;;;4.23;;
3068;SDS011;1545;51.728;8.796;2023-02-28T00:53:20;7.77;;;4.50;;
3068;SDS011;1545;51.728;8.796;2023-02-28T00:55:47;7.77;;;4.53;;
3068;SDS011;1545;51.728;8.796;2023-02-28T00:58:13;7.97;;;4.33;;
3068;SDS011;1545;51.728;8.796;2023-02-28T01:00:38;7.33;;;4.07;;
3068;SDS011;1545;51.728;8.796;2023-02-28T01:03:04;8.30;;;4.30;;
3068;SDS011;1545;51.728;8.796;2023-02-28T01:05:32;7.13;;;4.50;;
3068;SDS011;1545;51.728;8.796;2023-02-28T01:07:58;10.53;;;4.63;;
3068;SDS011;1545;51.728;8.796;2023-02-28T01:10:24;9.33;;;4.47;;
3068;SDS011;1545;51.728;8.796;2023-02-28T01:12:50;8.47;;;4.50;;
3068;SDS011;1545;51.728;8.796;2023-02-28T01:15:15;7.47;;;4.60;;
3068;SDS011;1545;51.728;8.796;2023-02-28T01:17:41;9.17;;;4.40;;
3068;SDS011;1545;51.728;8.796;2023-02-28T01:20:07;9.23;;;4.50;;
3068;SDS011;1545;51.728;8.796;2023-02-28T01:22:34;8.13;;;4.30;;
3068;SDS011;1545;51.728;8.796;2023-02-28T01:25:00;10.40;;;5.33;;
3068;SDS011;1545;51.728;8.796;2023-02-28T01:27:25;8.63;;;4.60;;
3068;SDS011;1545;51.728;8.796;2023-02-28T01:29:51;6.97;;;4.67;;
3068;SDS011;1545;51.728;8.796;2023-02-28T01:32:17;10.67;;;4.97;;
3068;SDS011;1545;51.728;8.796;2023-02-28T01:34:42;10.10;;;4.80;;
3068;SDS011;1545;51.728;8.796;2023-02-28T01:37:08;7.33;;;4.60;;
3068;SDS011;1545;51.728;8.796;2023-02-28T01:39:33;8.87;;;4.57;;
3068;SDS011;1545;51.728;8.796;2023-02-28T01:41:59;10.67;;;4.63;;
3068;SDS011;1545;51.728;8.796;2023-02-28T01:47:28;11.93;;;4.50;;
3068;SDS011;1545;51.728;8.796;2023-02-28T01:49:58;10.03;;;4.50;;
3068;SDS011;1545;51.728;8.796;2023-02-28T01:52:25;6.63;;;3.90;;
3068;SDS011;1545;51.728;8.796;2023-02-28T01:54:52;9.53;;;5.23;;
3068;SDS011;1545;51.728;8.796;2023-02-28T01:57:22;6.93;;;4.47;;
3068;SDS011;1545;51.728;8.796;2023-02-28T01:59:54;10.03;;;4.80;;
3068;SDS011;1545;51.728;8.796;2023-02-28T02:02:26;7.40;;;4.40;;
3068;SDS011;1545;51.728;8.796;2023-02-28T02:04:57;6.47;;;4.27;;
3068;SDS011;1545;51.728;8.796;2023-02-28T02:07:43;12.93;;;4.97;;
3068;SDS011;1545;51.728;8.796;2023-02-28T02:10:13;7.10;;;4.50;;
3068;SDS011;1545;51.728;8.796;2023-02-28T02:13:00;7.60;;;4.37;;
3068;SDS011;1545;51.728;8.796;2023-02-28T02:15:34;9.43;;;4.60;;
3068;SDS011;1545;51.728;8.796;2023-02-28T02:27:03;8.67;;;4.70;;
3068;SDS011;1545;51.728;8.796;2023-02-28T02:29:47;7.67;;;4.53;;
3068;SDS011;1545;51.728;8.796;2023-02-28T02:32:51;8.63;;;4.70;;
3068;SDS011;1545;51.728;8.796;2023-02-28T02:35:31;8.60;;;4.37;;
3068;SDS011;1545;51.728;8.796;2023-02-28T02:38:01;6.67;;;4.60;;
3068;SDS011;1545;51.728;8.796;2023-02-28T02:41:01;9.83;;;4.60;;
3068;SDS011;1545;51.728;8.796;2023-02-28T02:46:16;8.83;;;5.03;;
3068;SDS011;1545;51.728;8.796;2023-02-28T02:48:50;10.77;;;5.53;;
3068;SDS011;1545;51.728;8.796;2023-02-28T02:51:17;9.30;;;4.77;;
3068;SDS011;1545;51.728;8.796;2023-02-28T02:53:48;8.50;;;4.60;;
3068;SDS011;1545;51.728;8.796;2023-02-28T02:56:18;7.87;;;4.60;;
3068;SDS011;1545;51.728;8.796;2023-02-28T02:58:47;12.20;;;4.77;;
3068;SDS011;1545;51.728;8.796;2023-02-28T03:01:17;8.40;;;4.63;;
3068;SDS011;1545;51.728;8.796;2023-02-28T03:03:54;6.80;;;4.07;;
3068;SDS011;1545;51.728;8.796;2023-02-28T03:06:26;8.07;;;4.80;;
3068;SDS011;1545;51.728;8.796;2023-02-28T03:08:52;8.40;;;4.57;;
3068;SDS011;1545;51.728;8.796;2023-02-28T03:11:18;9.43;;;4.20;;
3068;SDS011;1545;51.728;8.796;2023-02-28T03:13:52;6.67;;;4.13;;
3068;SDS011;1545;51.728;8.796;2023-02-28T03:21:55;11.93;;;4.43;;
3068;SDS011;1545;51.728;8.796;2023-02-28T03:27:38;8.37;;;4.20;;
3068;SDS011;1545;51.728;8.796;2023-02-28T03:33:10;8.00;;;4.27;;
3068;SDS011;1545;51.728;8.796;2023-02-28T03:36:24;6.47;;;4.00;;
3068;SDS011;1545;51.728;8.796;2023-02-28T03:38:34;6.13;;;3.70;;
3068;SDS011;1545;51.728;8.796;2023-02-28T03:41:11;12.90;;;5.03;;
3068;SDS011;1545;51.728;8.796;2023-02-28T03:43:45;8.50;;;4.27;;
3068;SDS011;1545;51.728;8.796;2023-02-28T03:46:16;6.97;;;4.47;;
3068;SDS011;1545;51.728;8.796;2023-02-28T03:48:51;7.63;;;4.40;;
3068;SDS011;1545;51.728;8.796;2023-02-28T03:51:24;8.10;;;4.50;;
3068;SDS011;1545;51.728;8.796;2023-02-28T03:53:51;8.20;;;4.43;;
3068;SDS011;1545;51.728;8.796;2023-02-28T03:56:29;8.10;;;4.03;;
3068;SDS011;1545;51.728;8.796;2023-02-28T03:59:04;8.00;;;4.20;;
3068;SDS011;1545;51.728;8.796;2023-02-28T04:01:44;12.77;;;4.60;;
3068;SDS011;1545;51.728;8.796;2023-02-28T04:04:11;9.63;;;4.00;;
3068;SDS011;1545;51.728;8.796;2023-02-28T04:06:38;10.80;;;4.13;;
3068;SDS011;1545;51.728;8.796;2023-02-28T04:09:04;9.93;;;4.17;;
3068;SDS011;1545;51.728;8.796;2023-02-28T04:11:33;7.27;;;3.87;;
3068;SDS011;1545;51.728;8.796;2023-02-28T04:14:06;8.90;;;4.17;;
3068;SDS011;1545;51.728;8.796;2023-02-28T04:16:34;8.50;;;4.17;;
3068;SDS011;1545;51.728;8.796;2023-02-28T04:19:04;6.80;;;4.00;;
3068;SDS011;1545;51.728;8.796;2023-02-28T04:21:32;6.67;;;4.13;;
3068;SDS011;1545;51.728;8.796;2023-02-28T04:23:59;9.50;;;4.27;;
3068;SDS011;1545;51.728;8.796;2023-02-28T04:26:32;6.40;;;4.00;;
3068;SDS011;1545;51.728;8.796;2023-02-28T04:28:59;9.03;;;4.73;;
3068;SDS011;1545;51.728;8.796;2023-02-28T04:31:25;9.37;;;4.87;;
3068;SDS011;1545;51.728;8.796;2023-02-28T04:33:51;10.47;;;5.03;;
3068;SDS011;1545;51.728;8.796;2023-02-28T04:36:17;8.07;;;4.63;;
3068;SDS011;1545;51.728;8.796;2023-02-28T04:38:43;10.73;;;4.77;;
3068;SDS011;1545;51.728;8.796;2023-02-28T04:41:10;9.53;;;4.70;;
3068;SDS011;1545;51.728;8.796;2023-02-28T04:43:36;12.97;;;5.27;;
3068;SDS011;1545;51.728;8.796;2023-02-28T04:46:02;8.30;;;4.53;;
3068;SDS011;1545;51.728;8.796;2023-02-28T04:48:29;7.57;;;4.50;;
3068;SDS011;1545;51.728;8.796;2023-02-28T04:51:00;12.13;;;4.77;;
3068;SDS011;1545;51.728;8.796;2023-02-28T04:53:31;9.13;;;4.80;;
3068;SDS011;1545;51.728;8.796;2023-02-28T04:55:56;10.43;;;5.10;;
3068;SDS011;1545;51.728;8.796;2023-02-28T04:58:22;8.80;;;5.30;;
3068;SDS011;1545;51.728;8.796;2023-02-28T05:00:49;10.10;;;4.97;;
3068;SDS011;1545;51.728;8.796;2023-02-28T05:03:15;8.47;;;4.90;;
3068;SDS011;1545;51.728;8.796;2023-02-28T05:05:40;9.50;;;4.53;;
3068;SDS011;1545;51.728;8.796;2023-02-28T05:08:06;9.27;;;5.03;;
3068;SDS011;1545;51.728;8.796;2023-02-28T05:10:31;7.57;;;4.80;;
3068;SDS011;1545;51.728;8.796;2023-02-28T05:12:57;9.57;;;5.03;;
3068;SDS011;1545;51.728;8.796;2023-02-28T05:15:23;7.07;;;4.40;;
3068;SDS011;1545;51.728;8.796;2023-02-28T05:17:49;12.57;;;5.17;;
3068;SDS011;1545;51.728;8.796;2023-02-28T05:20:14;6.67;;;4.43;;
3068;SDS011;1545;51.728;8.796;2023-02-28T05:22:40;9.03;;;4.80;;
3068;SDS011;1545;51.728;8.796;2023-02-28T05:25:06;7.87;;;4.80;;
3068;SDS011;1545;51.728;8.796;2023-02-28T05:27:36;8.07;;;5.07;;
3068;SDS011;1545;51.728;8.796;2023-02-28T05:30:01;7.03;;;4.67;;
3068;SDS011;1545;51.728;8.796;2023-02-28T05:32:28;9.47;;;4.80;;
3068;SDS011;1545;51.728;8.796;2023-02-28T05:34:53;8.50;;;4.90;;
3068;SDS011;1545;51.728;8.796;2023-02-28T05:37:19;14.10;;;5.73;;
3068;SDS011;1545;51.728;8.796;2023-02-28T05:39:44;9.63;;;5.70;;
3068;SDS011;1545;51.728;8.796;2023-02-28T05:42:10;12.50;;;6.20;;
3068;SDS011;1545;51.728;8.796;2023-02-28T05:44:36;12.70;;;5.67;;
3068;SDS011;1545;51.728;8.796;2023-02-28T05:47:01;9.87;;;5.10;;
3068;SDS011;1545;51.728;8.796;2023-02-28T05:49:27;9.97;;;4.77;;
3068;SDS011;1545;51.728;8.796;2023-02-28T05:51:52;10.97;;;4.97;;
3068;SDS011;1545;51.728;8.796;2023-02-28T05:54:18;12.17;;;4.80;;
3068;SDS011;1545;51.728;8.796;2023-02-28T05:56:43;8.47;;;4.60;;
3068;SDS011;1545;51.728;8.796;2023-02-28T05:59:10;10.10;;;5.10;;
3068;SDS011;1545;51.728;8.796;2023-02-28T06:01:43;7.27;;;4.67;;
3068;SDS011;1545;51.728;8.796;2023-02-28T06:04:13;9.57;;;5.07;;
3068;SDS011;1545;51.728;8.796;2023-02-28T06:06:42;11.67;;;5.03;;
3068;SDS011;1545;51.728;8.796;2023-02-28T06:09:14;8.37;;;4.93;;
3068;SDS011;1545;51.728;8.796;2023-02-28T06:11:40;12.30;;;5.80;;
3068;SDS011;1545;51.728;8.796;2023-02-28T06:14:07;9.93;;;5.47;;
3068;SDS011;1545;51.728;8.796;2023-02-28T06:16:42;11.73;;;5.47;;
3068;SDS011;1545;51.728;8.796;2023-02-28T06:19:08;9.07;;;5.10;;
3068;SDS011;1545;51.728;8.796;2023-02-28T06:21:34;9.87;;;5.23;;
3068;SDS011;1545;51.728;8.796;2023-02-28T06:24:00;9.63;;;5.10;;
3068;SDS011;1545;51.728;8.796;2023-02-28T06:26:26;9.97;;;5.30;;
3068;SDS011;1545;51.728;8.796;2023-02-28T06:28:51;9.80;;;4.93;;
3068;SDS011;1545;51.728;8.796;2023-02-28T06:31:17;15.93;;;5.23;;
3068;SDS011;1545;51.728;8.796;2023-02-28T06:33:43;14.30;;;5.00;;
3068;SDS011;1545;51.728;8.796;2023-02-28T06:36:10;14.00;;;5.30;;
3068;SDS011;1545;51.728;8.796;2023-02-28T06:38:37;17.30;;;5.77;;
3068;SDS011;1545;51.728;8.796;2023-02-28T06:41:04;16.70;;;5.50;;
3068;SDS011;1545;51.728;8.796;2023-02-28T06:43:31;8.40;;;4.87;;
3068;SDS011;1545;51.728;8.796;2023-02-28T06:46:00;8.80;;;5.17;;
3068;SDS011;1545;51.728;8.796;2023-02-28T06:48:26;11.57;;;5.40;;
3068;SDS011;1545;51.728;8.796;2023-02-28T06:51:00;9.47;;;5.20;;
3068;SDS011;1545;51.728;8.796;2023-02-28T06:53:27;9.90;;;5.10;;
3068;SDS011;1545;51.728;8.796;2023-02-28T06:55:53;9.93;;;5.73;;
3068;SDS011;1545;51.728;8.796;2023-02-28T06:58:18;12.10;;;5.60;;
3068;SDS011;1545;51.728;8.796;2023-02-28T07:00:44;13.47;;;5.00;;
3068;SDS011;1545;51.728;8.796;2023-02-28T07:03:11;8.00;;;4.87;;
3068;SDS011;1545;51.728;8.796;2023-02-28T07:05:38;8.23;;;4.93;;
3068;SDS011;1545;51.728;8.796;2023-02-28T07:08:04;10.93;;;5.40;;
3068;SDS011;1545;51.728;8.796;2023-02-28T07:10:30;8.77;;;4.97;;
3068;SDS011;1545;51.728;8.796;2023-02-28T07:12:57;13.67;;;5.40;;
3068;SDS011;1545;51.728;8.796;2023-02-28T07:15:23;17.87;;;4.90;;
3068;SDS011;1545;51.728;8.796;2023-02-28T07:17:49;7.73;;;4.47;;
3068;SDS011;1545;51.728;8.796;2023-02-28T07:20:15;8.27;;;4.60;;
3068;SDS011;1545;51.728;8.796;2023-02-28T07:22:40;7.63;;;5.10;;
3068;SDS011;1545;51.728;8.796;2023-02-28T07:25:06;8.73;;;4.90;;
3068;SDS011;1545;51.728;8.796;2023-02-28T07:27:32;10.03;;;5.50;;
3068;SDS011;1545;51.728;8.796;2023-02-28T07:29:59;9.20;;;5.00;;
3068;SDS011;1545;51.728;8.796;2023-02-28T07:32:26;14.00;;;4.90;;
3068;SDS011;1545;51.728;8.796;2023-02-28T07:34:52;11.10;;;5.27;;
3068;SDS011;1545;51.728;8.796;2023-02-28T07:37:18;10.90;;;5.73;;
3068;SDS011;1545;51.728;8.796;2023-02-28T07:39:45;15.30;;;5.40;;
3068;SDS011;1545;51.728;8.796;2023-02-28T07:42:10;8.70;;;5.47;;
3068;SDS011;1545;51.728;8.796;2023-02-28T07:44:37;13.53;;;5.83;;
3068;SDS011;1545;51.728;8.796;2023-02-28T07:47:09;8.40;;;5.50;;
3068;SDS011;1545;51.728;8.796;2023-02-28T07:49:37;9.47;;;5.07;;
3068;SDS011;1545;51.728;8.796;2023-02-28T07:52:04;9.40;;;5.53;;
3068;SDS011;1545;51.728;8.796;2023-02-28T07:54:30;9.20;;;5.90;;
3068;SDS011;1545;51.728;8.796;2023-02-28T07:56:56;8.97;;;5.43;;
3068;SDS011;1545;51.728;8.796;2023-02-28T07:59:22;11.40;;;5.50;;
3068;SDS011;1545;51.728;8.796;2023-02-28T08:01:48;13.73;;;5.97;;
3068;SDS011;1545;51.728;8.796;2023-02-28T08:04:15;9.90;;;5.83;;
3068;SDS011;1545;51.728;8.796;2023-02-28T08:06:41;12.57;;;5.83;;
3068;SDS011;1545;51.728;8.796;2023-02-28T08:09:07;11.37;;;5.70;;
3068;SDS011;1545;51.728;8.796;2023-02-28T08:11:33;8.40;;;5.20;;
3068;SDS011;1545;51.728;8.796;2023-02-28T08:13:58;13.53;;;5.80;;
3068;SDS011;1545;51.728;8.796;2023-02-28T08:16:23;9.47;;;5.87;;
3068;SDS011;1545;51.728;8.796;2023-02-28T08:18:49;9.20;;;5.43;;
3068;SDS011;1545;51.728;8.796;2023-02-28T08:21:16;8.30;;;4.87;;
3068;SDS011;1545;51.728;8.796;2023-02-28T08:23:42;8.47;;;5.57;;
3068;SDS011;1545;51.728;8.796;2023-02-28T08:26:08;7.80;;;5.10;;
3068;SDS011;1545;51.728;8.796;2023-02-28T08:28:34;14.40;;;7.23;;
3068;SDS011;1545;51.728;8.796;2023-02-28T08:30:59;13.03;;;6.37;;
3068;SDS011;1545;51.728;8.796;2023-02-28T08:33:26;9.57;;;5.97;;
3068;SDS011;1545;51.728;8.796;2023-02-28T08:35:55;17.73;;;6.60;;
3068;SDS011;1545;51.728;8.796;2023-02-28T08:38:21;13.47;;;6.10;;
3068;SDS011;1545;51.728;8.796;2023-02-28T08:40:47;11.10;;;5.77;;
3068;SDS011;1545;51.728;8.796;2023-02-28T08:43:13;11.07;;;5.70;;
3068;SDS011;1545;51.728;8.796;2023-02-28T08:45:38;11.80;;;5.73;;
3068;SDS011;1545;51.728;8.796;2023-02-28T08:48:04;10.73;;;6.03;;
3068;SDS011;1545;51.728;8.796;2023-02-28T08:50:30;12.17;;;5.80;;
3068;SDS011;1545;51.728;8.796;2023-02-28T08:52:55;10.17;;;5.47;;
3068;SDS011;1545;51.728;8.796;2023-02-28T08:55:20;11.07;;;5.90;;
3068;SDS011;1545;51.728;8.796;2023-02-28T08:57:46;11.67;;;5.40;;
3068;SDS011;1545;51.728;8.796;2023-02-28T09:00:12;10.33;;;5.77;;
3068;SDS011;1545;51.728;8.796;2023-02-28T09:02:39;11.60;;;5.67;;
3068;SDS011;1545;51.728;8.796;2023-02-28T09:05:05;12.33;;;5.20;;
3068;SDS011;1545;51.728;8.796;2023-02-28T09:07:31;10.17;;;5.50;;
3068;SDS011;1545;51.728;8.796;2023-02-28T09:09:56;9.27;;;5.27;;
3068;SDS011;1545;51.728;8.796;2023-02-28T09:12:26;8.40;;;5.37;;
3068;SDS011;1545;51.728;8.796;2023-02-28T09:14:56;11.10;;;5.70;;
3068;SDS011;1545;51.728;8.796;2023-02-28T09:17:22;12.20;;;5.90;;
3068;SDS011;1545;51.728;8.796;2023-02-28T09:19:48;9.03;;;5.33;;
3068;SDS011;1545;51.728;8.796;2023-02-28T09:22:14;9.17;;;5.73;;
3068;SDS011;1545;51.728;8.796;2023-02-28T09:24:39;11.50;;;5.33;;
3068;SDS011;1545;51.728;8.796;2023-02-28T09:27:05;11.30;;;5.93;;
3068;SDS011;1545;51.728;8.796;2023-02-28T09:29:31;12.03;;;5.80;;
3068;SDS011;1545;51.728;8.796;2023-02-28T09:31:57;9.63;;;5.63;;
3068;SDS011;1545;51.728;8.796;2023-02-28T09:34:26;9.27;;;5.50;;
3068;SDS011;1545;51.728;8.796;2023-02-28T09:36:52;9.27;;;5.57;;
3068;SDS011;1545;51.728;8.796;2023-02-28T09:39:20;10.17;;;6.00;;
3068;SDS011;1545;51.728;8.796;2023-02-28T09:41:47;11.63;;;5.77;;
3068;SDS011;1545;51.728;8.796;2023-02-28T09:47:13;21.20;;;6.70;;
3068;SDS011;1545;51.728;8.796;2023-02-28T09:49:47;12.20;;;6.33;;
3068;SDS011;1545;51.728;8.796;2023-02-28T09:52:17;11.40;;;6.20;;
3068;SDS011;1545;51.728;8.796;2023-02-28T09:54:46;14.77;;;6.47;;
3068;SDS011;1545;51.728;8.796;2023-02-28T10:00:14;12.47;;;6.10;;
3068;SDS011;1545;51.728;8.796;2023-02-28T10:03:01;10.97;;;5.53;;
3068;SDS011;1545;51.728;8.796;2023-02-28T10:08:17;11.17;;;6.23;;
3068;SDS011;1545;51.728;8.796;2023-02-28T10:10:51;11.63;;;6.80;;
3068;SDS011;1545;51.728;8.796;2023-02-28T10:15:46;12.47;;;7.13;;
3068;SDS011;1545;51.728;8.796;2023-02-28T10:18:16;14.67;;;7.20;;
3068;SDS011;1545;51.728;8.796;2023-02-28T10:20:52;16.50;;;7.37;;
3068;SDS011;1545;51.728;8.796;2023-02-28T10:23:21;13.00;;;7.30;;
3068;SDS011;1545;51.728;8.796;2023-02-28T10:25:54;18.37;;;7.30;;
3068;SDS011;1545;51.728;8.796;2023-02-28T10:28:35;18.00;;;7.10;;
3068;SDS011;1545;51.728;8.796;2023-02-28T10:31:00;15.00;;;6.80;;
3068;SDS011;1545;51.728;8.796;2023-02-28T10:33:30;13.80;;;6.53;;
3068;SDS011;1545;51.728;8.796;2023-02-28T10:35:59;10.60;;;6.43;;
3068;SDS011;1545;51.728;8.796;2023-02-28T10:38:27;10.40;;;6.57;;
3068;SDS011;1545;51.728;8.796;2023-02-28T10:41:06;12.27;;;7.10;;
3068;SDS011;1545;51.728;8.796;2023-02-28T10:43:33;12.80;;;7.30;;
3068;SDS011;1545;51.728;8.796;2023-02-28T10:48:38;10.90;;;7.00;;
3068;SDS011;1545;51.728;8.796;2023-02-28T10:51:07;14.67;;;6.63;;
3068;SDS011;1545;51.728;8.796;2023-02-28T10:56:16;10.93;;;7.03;;
3068;SDS011;1545;51.728;8.796;2023-02-28T11:01:52;15.27;;;7.10;;
3068;SDS011;1545;51.728;8.796;2023-02-28T11:04:19;13.63;;;7.40;;
3068;SDS011;1545;51.728;8.796;2023-02-28T11:06:48;13.57;;;7.13;;
3068;SDS011;1545;51.728;8.796;2023-02-28T11:09:23;16.37;;;7.73;;
3068;SDS011;1545;51.728;8.796;2023-02-28T11:11:54;15.83;;;7.53;;
3068;SDS011;1545;51.728;8.796;2023-02-28T11:14:21;12.23;;;7.13;;
3068;SDS011;1545;51.728;8.796;2023-02-28T11:16:50;12.00;;;7.00;;
3068;SDS011;1545;51.728;8.796;2023-02-28T11:19:20;13.43;;;6.87;;
3068;SDS011;1545;51.728;8.796;2023-02-28T11:22:00;11.33;;;6.63;;
3068;SDS011;1545;51.728;8.796;2023-02-28T11:24:41;18.00;;;7.13;;
3068;SDS011;1545;51.728;8.796;2023-02-28T11:29:57;10.50;;;6.50;;
3068;SDS011;1545;51.728;8.796;2023-02-28T11:32:24;14.80;;;6.67;;
3068;SDS011;1545;51.728;8.796;2023-02-28T11:35:00;9.90;;;6.30;;
3068;SDS011;1545;51.728;8.796;2023-02-28T11:37:36;14.47;;;6.23;;
3068;SDS011;1545;51.728;8.796;2023-02-28T11:40:05;11.87;;;6.63;;
3068;SDS011;1545;51.728;8.796;2023-02-28T11:45:21;12.00;;;6.43;;
3068;SDS011;1545;51.728;8.796;2023-02-28T11:48:02;12.10;;;6.70;;
3068;SDS011;1545;51.728;8.796;2023-02-28T11:56:16;9.67;;;6.20;;
3068;SDS011;1545;51.728;8.796;2023-02-28T12:01:58;10.30;;;6.20;;
3068;SDS011;1545;51.728;8.796;2023-02-28T12:07:49;12.70;;;6.80;;
3068;SDS011;1545;51.728;8.796;2023-02-28T12:10:28;13.00;;;6.40;;
3068;SDS011;1545;51.728;8.796;2023-02-28T12:18:26;15.87;;;6.90;;
3068;SDS011;1545;51.728;8.796;2023-02-28T12:26:45;11.33;;;5.80;;
3068;SDS011;1545;51.728;8.796;2023-02-28T12:29:23;11.67;;;6.30;;
3068;SDS011;1545;51.728;8.796;2023-02-28T12:32:12;12.60;;;6.50;;
3068;SDS011;1545;51.728;8.796;2023-02-28T12:34:47;11.67;;;6.70;;
3068;SDS011;1545;51.728;8.796;2023-02-28T12:37:21;10.57;;;6.30;;
3068;SDS011;1545;51.728;8.796;2023-02-28T12:39:54;10.27;;;6.23;;
3068;SDS011;1545;51.728;8.796;2023-02-28T12:42:29;12.53;;;6.30;;
3068;SDS011;1545;51.728;8.796;2023-02-28T12:45:05;12.43;;;6.50;;
3068;SDS011;1545;51.728;8.796;2023-02-28T12:47:37;12.23;;;6.30;;
3068;SDS011;1545;51.728;8.796;2023-02-28T12:50:05;16.53;;;6.83;;
3068;SDS011;1545;51.728;8.796;2023-02-28T12:55:32;15.67;;;6.03;;
3068;SDS011;1545;51.728;8.796;2023-02-28T12:58:13;11.20;;;6.20;;
3068;SDS011;1545;51.728;8.796;2023-02-28T13:06:43;11.33;;;6.13;;
3068;SDS011;1545;51.728;8.796;2023-02-28T13:09:29;13.00;;;5.90;;
3068;SDS011;1545;51.728;8.796;2023-02-28T13:11:55;13.63;;;6.63;;
3068;SDS011;1545;51.728;8.796;2023-02-28T13:14:26;9.80;;;6.03;;
3068;SDS011;1545;51.728;8.796;2023-02-28T13:17:01;10.10;;;6.10;;
3068;SDS011;1545;51.728;8.796;2023-02-28T13:19:28;14.03;;;6.03;;
3068;SDS011;1545;51.728;8.796;2023-02-28T13:21:56;11.67;;;6.27;;
3068;SDS011;1545;51.728;8.796;2023-02-28T13:29:39;20.93;;;6.30;;
3068;SDS011;1545;51.728;8.796;2023-02-28T13:34:42;21.40;;;6.80;;
3068;SDS011;1545;51.728;8.796;2023-02-28T13:37:33;15.27;;;6.60;;
3068;SDS011;1545;51.728;8.796;2023-02-28T13:40:34;19.63;;;6.80;;
3068;SDS011;1545;51.728;8.796;2023-02-28T13:43:01;15.73;;;6.33;;
3068;SDS011;1545;51.728;8.796;2023-02-28T13:45:28;16.37;;;6.90;;
3068;SDS011;1545;51.728;8.796;2023-02-28T13:48:05;32.47;;;7.70;;
3068;SDS011;1545;51.728;8.796;2023-02-28T13:50:42;11.43;;;6.67;;
3068;SDS011;1545;51.728;8.796;2023-02-28T14:01:48;11.93;;;6.53;;
3068;SDS011;1545;51.728;8.796;2023-02-28T14:07:09;13.57;;;6.73;;
3068;SDS011;1545;51.728;8.796;2023-02-28T14:09:45;15.63;;;6.87;;
3068;SDS011;1545;51.728;8.796;2023-02-28T14:18:21;13.63;;;6.40;;
3068;SDS011;1545;51.728;8.796;2023-02-28T14:20:54;11.47;;;6.53;;
3068;SDS011;1545;51.728;8.796;2023-02-28T14:26:13;15.63;;;6.93;;
3068;SDS011;1545;51.728;8.796;2023-02-28T14:29:03;11.57;;;6.27;;
3068;SDS011;1545;51.728;8.796;2023-02-28T14:31:44;11.03;;;7.03;;
3068;SDS011;1545;51.728;8.796;2023-02-28T14:37:13;16.00;;;6.80;;
3068;SDS011;1545;51.728;8.796;2023-02-28T14:39:45;14.97;;;6.90;;
3068;SDS011;1545;51.728;8.796;2023-02-28T14:42:32;15.43;;;6.70;;
3068;SDS011;1545;51.728;8.796;2023-02-28T14:45:00;20.33;;;6.80;;
3068;SDS011;1545;51.728;8.796;2023-02-28T14:47:33;15.23;;;6.37;;
3068;SDS011;1545;51.728;8.796;2023-02-28T14:50:01;10.60;;;6.47;;
3068;SDS011;1545;51.728;8.796;2023-02-28T14:52:29;16.33;;;6.80;;
3068;SDS011;1545;51.728;8.796;2023-02-28T14:54:58;15.20;;;6.83;;
3068;SDS011;1545;51.728;8.796;2023-02-28T14:57:30;10.73;;;6.70;;
3068;SDS011;1545;51.728;8.796;2023-02-28T15:00:09;9.47;;;6.13;;
3068;SDS011;1545;51.728;8.796;2023-02-28T15:02:48;12.20;;;7.13;;
3068;SDS011;1545;51.728;8.796;2023-02-28T15:07:42;14.57;;;7.13;;
3068;SDS011;1545;51.728;8.796;2023-02-28T15:10:10;16.97;;;6.67;;
3068;SDS011;1545;51.728;8.796;2023-02-28T15:12:40;12.43;;;6.95;;
3068;SDS011;1545;51.728;8.796;2023-02-28T15:15:15;12.87;;;6.93;;
3068;SDS011;1545;51.728;8.796;2023-02-28T15:17:43;14.03;;;7.00;;
3068;SDS011;1545;51.728;8.796;2023-02-28T15:20:11;15.27;;;7.23;;
3068;SDS011;1545;51.728;8.796;2023-02-28T15:22:39;12.80;;;6.50;;
3068;SDS011;1545;51.728;8.796;2023-02-28T15:25:05;11.63;;;6.73;;
3068;SDS011;1545;51.728;8.796;2023-02-28T15:27:33;14.87;;;6.60;;
3068;SDS011;1545;51.728;8.796;2023-02-28T15:30:04;14.43;;;7.20;;
3068;SDS011;1545;51.728;8.796;2023-02-28T15:32:33;11.87;;;7.00;;
3068;SDS011;1545;51.728;8.796;2023-02-28T15:35:17;15.07;;;6.90;;
3068;SDS011;1545;51.728;8.796;2023-02-28T15:37:57;13.97;;;6.97;;
3068;SDS011;1545;51.728;8.796;2023-02-28T15:40:31;16.40;;;7.07;;
3068;SDS011;1545;51.728;8.796;2023-02-28T15:43:17;11.87;;;6.57;;
3068;SDS011;1545;51.728;8.796;2023-02-28T15:46:13;10.07;;;6.30;;
3068;SDS011;1545;51.728;8.796;2023-02-28T15:48:53;15.17;;;6.33;;
3068;SDS011;1545;51.728;8.796;2023-02-28T15:51:22;10.87;;;6.40;;
3068;SDS011;1545;51.728;8.796;2023-02-28T15:53:56;14.67;;;6.20;;
3068;SDS011;1545;51.728;8.796;2023-02-28T15:56:35;12.23;;;6.60;;
3068;SDS011;1545;51.728;8.796;2023-02-28T15:59:07;16.10;;;6.97;;
3068;SDS011;1545;51.728;8.796;2023-02-28T16:01:40;11.17;;;6.30;;
3068;SDS011;1545;51.728;8.796;2023-02-28T16:04:11;10.27;;;6.30;;
3068;SDS011;1545;51.728;8.796;2023-02-28T16:06:46;9.87;;;6.20;;
3068;SDS011;1545;51.728;8.796;2023-02-28T16:09:25;13.23;;;6.40;;
3068;SDS011;1545;51.728;8.796;2023-02-28T16:11:53;10.03;;;6.50;;
3068;SDS011;1545;51.728;8.796;2023-02-28T16:14:24;10.53;;;6.53;;
3068;SDS011;1545;51.728;8.796;2023-02-28T16:17:07;14.50;;;6.67;;
3068;SDS011;1545;51.728;8.796;2023-02-28T16:19:52;12.33;;;6.87;;
3068;SDS011;1545;51.728;8.796;2023-02-28T16:22:18;10.83;;;6.07;;
3068;SDS011;1545;51.728;8.796;2023-02-28T16:24:43;11.10;;;7.00;;
3068;SDS011;1545;51.728;8.796;2023-02-28T16:27:29;10.97;;;6.83;;
3068;SDS011;1545;51.728;8.796;2023-02-28T16:29:57;12.63;;;6.90;;
3068;SDS011;1545;51.728;8.796;2023-02-28T16:32:23;15.37;;;7.27;;
3068;SDS011;1545;51.728;8.796;2023-02-28T16:34:49;13.37;;;7.57;;
3068;SDS011;1545;51.728;8.796;2023-02-28T16:37:15;12.80;;;7.20;;
3068;SDS011;1545;51.728;8.796;2023-02-28T16:39:42;18.80;;;8.00;;
3068;SDS011;1545;51.728;8.796;2023-02-28T16:42:15;12.83;;;7.43;;
3068;SDS011;1545;51.728;8.796;2023-02-28T16:44:46;12.93;;;7.70;;
3068;SDS011;1545;51.728;8.796;2023-02-28T16:47:12;14.07;;;7.50;;
3068;SDS011;1545;51.728;8.796;2023-02-28T16:49:38;14.37;;;7.60;;
3068;SDS011;1545;51.728;8.796;2023-02-28T16:52:04;13.07;;;7.50;;
3068;SDS011;1545;51.728;8.796;2023-02-28T16:54:30;19.00;;;8.43;;
3068;SDS011;1545;51.728;8.796;2023-02-28T16:56:56;15.30;;;8.30;;
3068;SDS011;1545;51.728;8.796;2023-02-28T16:59:22;17.60;;;8.27;;
3068;SDS011;1545;51.728;8.796;2023-02-28T17:01:50;16.07;;;8.37;;
3068;SDS011;1545;51.728;8.796;2023-02-28T17:04:16;15.07;;;8.03;;
3068;SDS011;1545;51.728;8.796;2023-02-28T17:06:42;15.63;;;8.27;;
3068;SDS011;1545;51.728;8.796;2023-02-28T17:09:09;17.20;;;8.53;;
3068;SDS011;1545;51.728;8.796;2023-02-28T17:11:41;16.83;;;8.93;;
3068;SDS011;1545;51.728;8.796;2023-02-28T17:14:06;17.30;;;8.97;;
3068;SDS011;1545;51.728;8.796;2023-02-28T17:16:32;16.33;;;9.20;;
3068;SDS011;1545;51.728;8.796;2023-02-28T17:19:01;19.20;;;9.37;;
3068;SDS011;1545;51.728;8.796;2023-02-28T17:21:29;15.03;;;8.70;;